ENEV

Harstad / Narvik , Evenes Airport

Evenes, Norway
TAF COR ENEV 200800Z 2009/2018 18008KT 9999 FEW010 BKN040 TEMPO 2009/2018 2000 SHSN VV008
Issued Valid From Valid To
Jan-20 @ 08:00 UTC
(3 hours ago)
Jan-20 @ 09:00 UTC
(2 hours ago)
Jan-20 @ 18:00 UTC
(in 7 hours)
Jan-20 @ 09:00 to Jan-20 @ 18:00
TAF COR ENEV 200800Z 2009/2018 18008KT 9999 FEW010 BKN040
Wind Visibility Clouds
180° at 8 knots 10,000+ meters
  • Few at 1,000' AGL
  • Broken at 4,000' AGL
Temporary Jan-20 @ 09:00 to Jan-20 @ 18:00
TEMPO 2009/2018 2000 SHSN VV008
Visibility Clouds Conditions
1,996 meters
  • Vertical visibility at 800' AGL
  • Snow
TAF COR ENEV 200800Z 2009/2018 18008KT 9999 FEW010 BKN040 TEMPO 2009/2018 2000 SHSN VV008
Issued Jan-20 @ 08:00 UTC
(3 hours ago)
Valid From Jan-20 @ 09:00 UTC
(2 hours ago)
Valid To Jan-20 @ 18:00 UTC
(in 7 hours)
Jan-20 @ 09:00 - Jan-20 @ 18:00
Wind Visibility
180° at 8 knots 10,000+ meters
Clouds
  • Few at 1,000' AGL
  • Broken at 4,000' AGL
Temporary Jan-20 @ 09:00 - Jan-20 @ 18:00
Clouds
  • Vertical visibility at 800' AGL
Conditions
  • Snow